createdAt,value
2023-12-19T00:01:52.419Z,96.60
2023-12-19T00:04:19.591Z,96.60
2023-12-19T00:06:46.743Z,96.70
2023-12-19T00:09:14.117Z,96.50
2023-12-19T00:11:41.379Z,96.60
2023-12-19T00:14:08.656Z,96.70
2023-12-19T00:16:38.007Z,96.60
2023-12-19T00:19:05.048Z,96.50
2023-12-19T00:21:32.142Z,96.10
2023-12-19T00:23:59.119Z,95.40
2023-12-19T00:26:26.033Z,95.30
2023-12-19T00:28:52.923Z,94.90
2023-12-19T00:31:23.686Z,94.50
2023-12-19T00:33:51.052Z,94.00
2023-12-19T00:36:24.785Z,93.90
2023-12-19T00:38:52.239Z,93.60
2023-12-19T00:41:19.582Z,93.80
2023-12-19T00:43:46.987Z,93.80
2023-12-19T00:46:14.035Z,93.60
2023-12-19T00:48:41.323Z,93.30
2023-12-19T00:51:12.223Z,93.20
2023-12-19T00:53:39.671Z,92.90
2023-12-19T00:56:09.088Z,92.40
2023-12-19T00:58:40.167Z,92.00
2023-12-19T01:01:08.005Z,91.50
2023-12-19T01:03:36.280Z,90.40
2023-12-19T01:06:04.856Z,90.60
2023-12-19T01:08:32.033Z,90.40
2023-12-19T01:10:59.224Z,89.70
2023-12-19T01:13:26.445Z,90.00
2023-12-19T01:15:53.530Z,88.60
2023-12-19T01:18:20.619Z,88.60
2023-12-19T01:20:49.221Z,88.20
2023-12-19T01:23:16.838Z,87.20
2023-12-19T01:25:43.785Z,86.80
2023-12-19T01:28:12.850Z,86.80
2023-12-19T01:30:41.427Z,85.30
2023-12-19T01:33:10.109Z,86.50
2023-12-19T01:35:37.781Z,84.90
2023-12-19T01:38:05.008Z,84.70
2023-12-19T01:40:32.804Z,83.60
2023-12-19T01:43:00.418Z,84.30
2023-12-19T01:45:28.958Z,84.60
2023-12-19T01:47:56.497Z,82.80
2023-12-19T01:50:24.032Z,81.40
2023-12-19T01:52:54.528Z,80.50
2023-12-19T01:55:22.846Z,79.80
2023-12-19T01:57:50.598Z,79.50
2023-12-19T02:00:17.820Z,78.70
2023-12-19T02:02:46.525Z,77.50
2023-12-19T02:05:16.993Z,78.00
2023-12-19T02:07:44.652Z,78.40
2023-12-19T02:10:12.845Z,77.00
2023-12-19T02:12:40.055Z,78.20
2023-12-19T02:15:08.679Z,76.80
2023-12-19T02:17:35.654Z,77.70
2023-12-19T02:20:02.612Z,77.60
2023-12-19T02:22:32.253Z,77.20
2023-12-19T02:24:59.746Z,75.00
2023-12-19T02:27:27.370Z,75.90
2023-12-19T02:29:54.368Z,74.40
2023-12-19T02:32:21.729Z,75.80
2023-12-19T02:34:50.314Z,75.10
2023-12-19T02:37:17.319Z,75.30
2023-12-19T02:39:44.667Z,74.30
2023-12-19T02:42:11.650Z,74.70
2023-12-19T02:44:38.565Z,74.10
2023-12-19T02:47:05.513Z,74.40
2023-12-19T02:49:32.524Z,73.60
2023-12-19T02:51:59.700Z,74.20
2023-12-19T02:54:26.756Z,73.90
2023-12-19T02:56:53.715Z,73.60
2023-12-19T02:59:20.654Z,73.50
2023-12-19T03:01:51.403Z,73.20
2023-12-19T03:04:18.576Z,72.60
2023-12-19T03:06:45.754Z,71.70
2023-12-19T03:09:12.770Z,72.10
2023-12-19T03:11:40.383Z,71.50
2023-12-19T03:14:07.474Z,71.20
2023-12-19T03:16:34.361Z,70.60
2023-12-19T03:19:01.699Z,70.20
2023-12-19T03:21:28.774Z,67.40
2023-12-19T03:23:55.678Z,67.50
2023-12-19T03:26:23.066Z,67.20
2023-12-19T03:28:52.325Z,65.40
2023-12-19T03:31:20.124Z,65.40
2023-12-19T03:33:47.398Z,64.30
2023-12-19T03:36:14.442Z,63.30
2023-12-19T03:38:41.464Z,63.70
2023-12-19T03:41:08.643Z,63.40
2023-12-19T03:43:38.316Z,63.30
2023-12-19T03:46:08.885Z,64.20
2023-12-19T03:48:36.169Z,64.10
2023-12-19T03:51:03.874Z,63.60
2023-12-19T03:53:31.150Z,63.60
2023-12-19T03:55:58.112Z,64.60
2023-12-19T03:58:25.369Z,64.10
2023-12-19T04:00:52.640Z,65.10
2023-12-19T04:03:20.189Z,63.90
2023-12-19T04:05:47.085Z,65.00
2023-12-19T04:08:13.987Z,64.90
2023-12-19T04:10:40.916Z,65.40
2023-12-19T04:13:08.034Z,65.10
2023-12-19T04:15:35.040Z,64.60
2023-12-19T04:18:02.256Z,65.20
2023-12-19T04:20:29.289Z,65.50
2023-12-19T04:22:56.379Z,64.50
2023-12-19T04:25:23.344Z,64.80
2023-12-19T04:27:50.357Z,64.90
2023-12-19T04:30:17.344Z,64.90
2023-12-19T04:32:44.683Z,65.60
2023-12-19T04:35:11.813Z,66.10
2023-12-19T04:37:38.780Z,65.70
2023-12-19T04:40:06.507Z,66.10
2023-12-19T04:42:33.901Z,65.80
2023-12-19T04:45:00.838Z,67.10
2023-12-19T04:47:27.875Z,67.30
2023-12-19T04:49:55.005Z,67.20
2023-12-19T04:52:22.305Z,67.60
2023-12-19T04:54:49.311Z,67.50
2023-12-19T04:57:16.307Z,69.60
2023-12-19T04:59:43.267Z,70.10
2023-12-19T05:02:10.148Z,69.50
2023-12-19T05:04:37.021Z,68.50
2023-12-19T05:07:04.156Z,69.00
2023-12-19T05:09:31.157Z,69.20
2023-12-19T05:11:58.061Z,69.30
2023-12-19T05:14:25.456Z,69.40
2023-12-19T05:16:52.389Z,69.80
2023-12-19T05:19:19.340Z,70.00
2023-12-19T05:21:46.423Z,69.70
2023-12-19T05:24:13.473Z,70.70
2023-12-19T05:26:40.437Z,71.30
2023-12-19T05:29:07.481Z,71.50
2023-12-19T05:31:34.486Z,71.80
2023-12-19T05:34:01.407Z,72.20
2023-12-19T05:36:28.803Z,72.50
2023-12-19T05:38:56.668Z,72.50
2023-12-19T05:41:23.543Z,72.30
2023-12-19T05:43:50.523Z,72.20
2023-12-19T05:46:17.391Z,72.70
2023-12-19T05:48:44.464Z,72.70
2023-12-19T05:51:12.203Z,72.80
2023-12-19T05:53:39.253Z,73.00
2023-12-19T05:56:06.781Z,72.90
2023-12-19T05:58:34.021Z,72.70
2023-12-19T06:01:01.044Z,73.00
2023-12-19T06:03:28.070Z,72.80
2023-12-19T06:05:55.329Z,73.00
2023-12-19T06:08:23.105Z,73.70
2023-12-19T06:10:49.999Z,73.00
2023-12-19T06:13:17.083Z,73.20
2023-12-19T06:15:44.065Z,73.00
2023-12-19T06:18:11.335Z,73.10
2023-12-19T06:20:38.495Z,73.40
2023-12-19T06:23:05.367Z,73.60
2023-12-19T06:25:33.977Z,73.50
2023-12-19T06:28:01.454Z,73.90
2023-12-19T06:30:32.025Z,74.40
2023-12-19T06:33:01.947Z,74.50
2023-12-19T06:35:32.512Z,74.80
2023-12-19T06:37:59.563Z,75.20
2023-12-19T06:40:26.655Z,75.40
2023-12-19T06:42:55.050Z,75.80
2023-12-19T06:45:22.080Z,76.30
2023-12-19T06:47:49.061Z,76.50
2023-12-19T06:50:17.560Z,76.70
2023-12-19T06:52:44.746Z,77.10
2023-12-19T06:55:13.176Z,77.10
2023-12-19T06:57:40.304Z,77.30
2023-12-19T07:00:08.063Z,77.40
2023-12-19T07:02:37.373Z,77.80
2023-12-19T07:05:05.337Z,78.70
2023-12-19T07:07:32.620Z,78.60
2023-12-19T07:09:59.672Z,78.90
2023-12-19T07:12:26.762Z,79.00
2023-12-19T07:14:53.917Z,79.30
2023-12-19T07:17:20.948Z,79.30
2023-12-19T07:19:48.697Z,80.70
2023-12-19T07:22:15.728Z,79.80
2023-12-19T07:24:42.713Z,80.00
2023-12-19T07:27:09.743Z,80.40
2023-12-19T07:29:40.683Z,80.50
2023-12-19T07:32:08.164Z,80.60
2023-12-19T07:34:35.311Z,80.70
2023-12-19T07:37:03.304Z,80.60
2023-12-19T07:39:31.384Z,81.00
2023-12-19T07:41:58.319Z,81.00
2023-12-19T07:44:25.355Z,80.80
2023-12-19T07:46:52.968Z,80.40
2023-12-19T07:49:20.221Z,80.50
2023-12-19T07:51:47.403Z,80.40
2023-12-19T07:54:14.379Z,80.00
2023-12-19T07:56:43.539Z,79.70
2023-12-19T07:59:12.103Z,79.40
2023-12-19T08:01:40.473Z,79.60
2023-12-19T08:04:07.656Z,79.50
2023-12-19T08:06:34.818Z,79.90
2023-12-19T08:09:01.969Z,80.00
2023-12-19T08:11:28.897Z,80.10
2023-12-19T08:13:55.810Z,80.20
2023-12-19T08:16:22.933Z,80.20
2023-12-19T08:18:52.460Z,80.00
2023-12-19T08:21:20.742Z,80.10
2023-12-19T08:23:49.661Z,81.00
2023-12-19T08:26:16.789Z,80.40
2023-12-19T08:28:43.754Z,80.80
2023-12-19T08:31:11.044Z,80.40
2023-12-19T08:33:39.943Z,80.60
2023-12-19T08:36:07.457Z,80.90
2023-12-19T08:38:34.901Z,81.10
2023-12-19T08:41:02.228Z,81.20
2023-12-19T08:43:33.454Z,81.10
2023-12-19T08:46:00.691Z,81.60
2023-12-19T08:48:27.638Z,80.90
2023-12-19T08:50:54.540Z,81.10
2023-12-19T08:53:22.342Z,80.30
2023-12-19T08:55:49.957Z,80.20
2023-12-19T08:58:16.902Z,80.30
2023-12-19T09:00:44.025Z,80.30
2023-12-19T09:03:12.272Z,79.40
2023-12-19T09:05:39.130Z,79.60
2023-12-19T09:08:06.393Z,79.40
2023-12-19T09:10:33.767Z,78.90
2023-12-19T09:13:00.752Z,79.00
2023-12-19T09:15:27.793Z,78.60
2023-12-19T09:17:54.799Z,78.70
2023-12-19T09:20:23.032Z,78.60
2023-12-19T09:22:50.286Z,78.40
2023-12-19T09:25:17.705Z,78.10
2023-12-19T09:27:45.522Z,77.70
2023-12-19T09:30:13.665Z,77.50
2023-12-19T09:32:42.501Z,76.30
2023-12-19T09:35:12.740Z,76.30
2023-12-19T09:37:40.112Z,75.80
2023-12-19T09:40:14.570Z,76.50
2023-12-19T09:42:41.971Z,75.90
2023-12-19T09:45:09.552Z,75.80
2023-12-19T09:47:42.189Z,76.10
2023-12-19T09:50:14.418Z,75.60
2023-12-19T09:52:46.975Z,76.40
2023-12-19T09:55:15.814Z,75.50
2023-12-19T09:57:44.824Z,76.50
2023-12-19T10:00:13.344Z,75.30
2023-12-19T10:02:42.491Z,75.40
2023-12-19T10:05:11.008Z,75.50
2023-12-19T10:07:38.136Z,75.00
2023-12-19T10:10:08.421Z,76.00
2023-12-19T10:12:56.876Z,75.30
2023-12-19T10:15:27.338Z,75.30
2023-12-19T10:18:13.721Z,74.70
2023-12-19T10:20:41.916Z,75.00
2023-12-19T10:23:10.259Z,75.70
2023-12-19T10:25:45.354Z,76.10
2023-12-19T10:28:15.949Z,76.30
2023-12-19T10:30:45.759Z,75.90
2023-12-19T10:33:15.449Z,75.40
2023-12-19T10:35:46.636Z,76.20
2023-12-19T10:38:13.978Z,76.00
2023-12-19T10:40:41.033Z,75.60
2023-12-19T10:43:08.065Z,75.40
2023-12-19T10:45:36.121Z,75.30
2023-12-19T10:48:03.213Z,75.90
2023-12-19T10:50:31.359Z,75.60
2023-12-19T10:53:04.565Z,76.20
2023-12-19T10:55:42.520Z,76.80
2023-12-19T10:58:13.775Z,76.10
2023-12-19T11:00:43.234Z,76.30
2023-12-19T11:03:33.736Z,76.30
2023-12-19T11:06:07.218Z,75.80
2023-12-19T11:08:35.708Z,75.70
2023-12-19T11:11:25.120Z,75.60
2023-12-19T11:13:54.557Z,76.30
2023-12-19T11:16:33.197Z,76.50
2023-12-19T11:19:31.971Z,76.40
2023-12-19T11:22:07.316Z,76.80
2023-12-19T11:25:12.593Z,77.40
2023-12-19T11:27:53.992Z,77.70
2023-12-19T11:30:45.046Z,76.00
2023-12-19T11:33:14.321Z,76.60
2023-12-19T11:35:42.606Z,77.10
2023-12-19T11:38:15.618Z,77.60
2023-12-19T11:40:49.595Z,76.10
2023-12-19T11:43:28.660Z,76.30
2023-12-19T11:46:17.383Z,77.00
2023-12-19T11:48:49.896Z,75.90
2023-12-19T11:51:42.824Z,77.40
2023-12-19T11:54:14.369Z,77.20
2023-12-19T11:56:41.861Z,77.30
2023-12-19T11:59:12.848Z,78.00
2023-12-19T12:01:41.695Z,77.20
2023-12-19T12:04:11.945Z,78.20
2023-12-19T12:06:39.854Z,78.60
2023-12-19T12:09:07.234Z,77.90
2023-12-19T12:11:52.285Z,77.20
2023-12-19T12:14:19.463Z,76.90
2023-12-19T12:16:46.430Z,77.90
2023-12-19T12:19:15.025Z,77.80
2023-12-19T12:21:50.922Z,78.10
2023-12-19T12:24:31.400Z,78.30
2023-12-19T12:27:13.521Z,78.10
2023-12-19T12:29:41.662Z,78.20
2023-12-19T12:32:08.716Z,78.20
2023-12-19T12:34:35.714Z,77.40
2023-12-19T12:37:02.898Z,77.80
2023-12-19T12:39:29.993Z,78.10
2023-12-19T12:42:08.099Z,78.00
2023-12-19T12:44:35.266Z,77.70
2023-12-19T12:47:07.453Z,78.40
2023-12-19T12:49:35.055Z,77.90
2023-12-19T12:52:02.863Z,77.30
2023-12-19T12:54:32.870Z,77.40
2023-12-19T12:57:00.996Z,77.20
2023-12-19T12:59:29.667Z,77.50
2023-12-19T13:01:56.668Z,77.30
2023-12-19T13:04:25.220Z,77.10
2023-12-19T13:06:52.696Z,77.50
2023-12-19T13:09:22.361Z,77.10
2023-12-19T13:11:55.194Z,77.10
2023-12-19T13:14:23.534Z,76.50
2023-12-19T13:16:50.467Z,76.00
2023-12-19T13:19:19.081Z,76.30
2023-12-19T13:21:47.494Z,76.80
2023-12-19T13:24:15.094Z,76.40
2023-12-19T13:26:42.424Z,76.70
2023-12-19T13:29:09.737Z,76.90
2023-12-19T13:31:38.806Z,77.60
2023-12-19T13:34:06.221Z,77.70
2023-12-19T13:36:33.345Z,77.60
2023-12-19T13:39:00.410Z,77.80
2023-12-19T13:41:27.289Z,78.40
2023-12-19T13:43:54.288Z,78.20
2023-12-19T13:46:21.724Z,78.20
2023-12-19T13:48:48.985Z,78.30
2023-12-19T13:51:16.837Z,78.20
2023-12-19T13:53:43.923Z,78.30
2023-12-19T13:56:10.880Z,78.10
2023-12-19T13:58:37.877Z,78.10
2023-12-19T14:01:05.932Z,78.20
2023-12-19T14:03:33.189Z,78.40
2023-12-19T14:06:00.498Z,78.50
2023-12-19T14:08:28.906Z,78.50
2023-12-19T14:10:56.137Z,78.50
2023-12-19T14:13:23.189Z,79.30
2023-12-19T14:15:55.361Z,79.00
2023-12-19T14:18:22.952Z,79.10
2023-12-19T14:20:50.863Z,79.60
2023-12-19T14:23:17.731Z,80.70
2023-12-19T14:25:44.655Z,81.10
2023-12-19T14:28:12.307Z,81.80
2023-12-19T14:30:40.166Z,82.40
2023-12-19T14:33:07.560Z,83.10
2023-12-19T14:35:34.556Z,83.50
2023-12-19T14:38:01.528Z,83.90
2023-12-19T14:40:28.415Z,83.80
2023-12-19T14:42:55.291Z,84.30
2023-12-19T14:45:22.237Z,84.60
2023-12-19T14:47:49.192Z,84.80
2023-12-19T14:50:16.296Z,84.50
2023-12-19T14:52:43.386Z,84.90
2023-12-19T14:55:10.536Z,84.60
2023-12-19T14:57:37.772Z,84.80
2023-12-19T15:00:06.501Z,85.30
2023-12-19T15:02:33.587Z,85.50
2023-12-19T15:05:00.661Z,85.90
2023-12-19T15:07:27.657Z,86.80
2023-12-19T15:09:54.977Z,86.90
2023-12-19T15:12:21.945Z,86.80
2023-12-19T15:14:49.288Z,86.10
2023-12-19T15:17:16.213Z,85.90
2023-12-19T15:19:43.445Z,86.20
2023-12-19T15:22:10.544Z,86.80
2023-12-19T15:24:39.266Z,86.30
2023-12-19T15:27:07.083Z,87.00
2023-12-19T15:29:34.181Z,86.80
2023-12-19T15:32:01.220Z,87.50
2023-12-19T15:34:30.296Z,88.10
2023-12-19T15:36:57.313Z,88.20
2023-12-19T15:39:24.585Z,88.60
2023-12-19T15:41:51.610Z,89.00
2023-12-19T15:44:18.558Z,89.00
2023-12-19T15:46:46.119Z,89.30
2023-12-19T15:49:14.816Z,89.70
2023-12-19T15:51:42.874Z,89.80
2023-12-19T15:54:10.108Z,90.30
2023-12-19T15:56:39.004Z,90.40
2023-12-19T15:59:08.399Z,90.70
2023-12-19T16:01:36.678Z,91.00
2023-12-19T16:04:04.457Z,90.90
2023-12-19T16:06:32.665Z,91.20
2023-12-19T16:08:59.800Z,91.60
2023-12-19T16:11:27.117Z,92.30
2023-12-19T16:13:54.724Z,92.50
2023-12-19T16:16:22.573Z,92.80
2023-12-19T16:18:50.096Z,92.80
2023-12-19T16:21:19.853Z,92.90
2023-12-19T16:23:57.731Z,93.00
2023-12-19T16:26:34.329Z,93.30
2023-12-19T16:29:02.322Z,93.40
2023-12-19T16:31:29.895Z,93.00
2023-12-19T16:33:57.267Z,93.40
2023-12-19T16:36:24.400Z,93.50
2023-12-19T16:38:52.865Z,93.30
2023-12-19T16:41:23.303Z,93.50
2023-12-19T16:43:51.193Z,94.00
2023-12-19T16:46:19.043Z,94.10
2023-12-19T16:48:46.214Z,93.70
2023-12-19T16:51:13.621Z,93.90
2023-12-19T16:53:40.660Z,94.20
2023-12-19T16:56:14.876Z,94.50
2023-12-19T16:58:44.508Z,94.70
2023-12-19T17:01:15.968Z,95.00
2023-12-19T17:03:43.901Z,94.90
2023-12-19T17:06:11.382Z,95.20
2023-12-19T17:08:38.464Z,96.10
2023-12-19T17:11:07.161Z,96.10
2023-12-19T17:13:34.190Z,96.30
2023-12-19T17:16:01.138Z,96.80
2023-12-19T17:18:28.215Z,96.90
2023-12-19T17:20:55.161Z,97.00
2023-12-19T17:23:23.864Z,97.00
2023-12-19T17:25:51.944Z,97.00
2023-12-19T17:28:18.890Z,96.90
2023-12-19T17:30:46.436Z,97.20
2023-12-19T17:33:13.453Z,97.00
2023-12-19T17:35:40.581Z,96.80
2023-12-19T17:38:07.480Z,96.40
2023-12-19T17:40:34.431Z,96.50
2023-12-19T17:43:01.436Z,96.60
2023-12-19T17:45:29.559Z,96.70
2023-12-19T17:47:56.515Z,97.10
2023-12-19T17:50:23.938Z,97.60
2023-12-19T17:52:50.880Z,98.00
2023-12-19T17:55:18.099Z,98.20
2023-12-19T17:57:45.325Z,98.20
2023-12-19T18:00:12.884Z,97.60
2023-12-19T18:02:39.858Z,97.20
2023-12-19T18:05:07.875Z,97.50
2023-12-19T18:07:34.828Z,97.70
2023-12-19T18:10:02.890Z,97.50
2023-12-19T18:12:31.738Z,97.20
2023-12-19T18:14:58.804Z,97.30
2023-12-19T18:17:26.439Z,97.40
2023-12-19T18:19:54.069Z,97.60
2023-12-19T18:22:21.182Z,98.10
2023-12-19T18:24:48.165Z,98.00
2023-12-19T18:27:15.142Z,98.10
2023-12-19T18:29:42.653Z,98.40
2023-12-19T18:32:09.506Z,98.80
2023-12-19T18:34:36.609Z,98.80
2023-12-19T18:37:03.713Z,99.30
2023-12-19T18:39:30.620Z,99.30
2023-12-19T18:41:57.534Z,99.30
2023-12-19T18:44:24.486Z,99.00
2023-12-19T18:46:52.692Z,98.90
2023-12-19T18:49:20.682Z,99.10
2023-12-19T18:51:47.608Z,99.40
2023-12-19T18:54:14.882Z,99.30
2023-12-19T18:56:41.814Z,99.80
2023-12-19T18:59:09.115Z,99.10
2023-12-19T19:01:36.672Z,98.90
2023-12-19T19:04:04.274Z,99.00
2023-12-19T19:06:33.482Z,99.10
2023-12-19T19:09:00.960Z,99.30
2023-12-19T19:11:30.669Z,99.50
2023-12-19T19:13:58.510Z,99.80
2023-12-19T19:16:25.585Z,99.70
2023-12-19T19:18:52.594Z,99.90
2023-12-19T19:21:19.531Z,99.80
2023-12-19T19:23:50.316Z,99.90
2023-12-19T19:26:17.582Z,99.90
2023-12-19T19:28:44.608Z,99.90
2023-12-19T19:31:11.754Z,99.90
2023-12-19T19:33:38.848Z,99.90
2023-12-19T19:36:06.400Z,99.90
2023-12-19T19:38:33.359Z,99.90
2023-12-19T19:41:02.040Z,99.90
2023-12-19T19:43:29.431Z,99.90
2023-12-19T19:46:00.994Z,99.90
2023-12-19T19:48:28.345Z,99.90
2023-12-19T19:50:57.524Z,99.90
2023-12-19T19:53:24.507Z,99.90
2023-12-19T19:55:51.599Z,99.90
2023-12-19T19:58:18.986Z,99.90
2023-12-19T20:00:46.181Z,99.90
2023-12-19T20:03:13.261Z,99.90
2023-12-19T20:05:41.752Z,99.90
2023-12-19T20:08:09.877Z,99.90
2023-12-19T20:10:37.194Z,99.90
2023-12-19T20:13:04.452Z,99.90
2023-12-19T20:15:31.962Z,99.90
2023-12-19T20:17:58.984Z,99.90
2023-12-19T20:20:26.161Z,99.90
2023-12-19T20:22:53.166Z,99.90
2023-12-19T20:25:21.438Z,99.90
2023-12-19T20:27:49.685Z,99.90
2023-12-19T20:30:19.209Z,99.90
2023-12-19T20:32:47.274Z,99.90
2023-12-19T20:35:14.903Z,99.90
2023-12-19T20:37:44.344Z,99.90
2023-12-19T20:40:12.133Z,99.90
2023-12-19T20:42:40.351Z,99.90
2023-12-19T20:45:07.875Z,99.90
2023-12-19T20:47:34.894Z,99.90
2023-12-19T20:50:02.789Z,99.90
2023-12-19T20:52:31.709Z,99.90
2023-12-19T20:55:00.702Z,99.90
2023-12-19T20:57:28.511Z,99.90
2023-12-19T20:59:56.713Z,99.90
2023-12-19T21:02:24.628Z,99.90
2023-12-19T21:04:51.582Z,99.90
2023-12-19T21:07:18.626Z,99.90
2023-12-19T21:09:45.824Z,99.90
2023-12-19T21:12:13.769Z,99.90
2023-12-19T21:14:41.088Z,99.90
2023-12-19T21:17:09.836Z,99.90
2023-12-19T21:19:37.861Z,99.90
2023-12-19T21:22:06.374Z,99.90
2023-12-19T21:24:33.900Z,99.90
2023-12-19T21:27:01.161Z,99.90
2023-12-19T21:29:28.215Z,99.90
2023-12-19T21:31:55.254Z,99.90
2023-12-19T21:34:22.363Z,99.90
2023-12-19T21:36:49.856Z,99.90
2023-12-19T21:39:17.088Z,99.90
2023-12-19T21:41:47.606Z,99.90
2023-12-19T21:44:15.370Z,99.90
2023-12-19T21:46:42.242Z,99.90
2023-12-19T21:49:10.065Z,99.90
2023-12-19T21:51:38.214Z,99.90
2023-12-19T21:54:12.284Z,99.90
2023-12-19T21:56:39.856Z,99.90
2023-12-19T21:59:08.153Z,99.90
2023-12-19T22:01:36.226Z,99.90
2023-12-19T22:04:05.278Z,99.90
2023-12-19T22:06:32.327Z,99.90
2023-12-19T22:08:59.232Z,99.90
2023-12-19T22:11:26.096Z,99.90
2023-12-19T22:13:54.433Z,99.90
2023-12-19T22:16:22.608Z,99.90
2023-12-19T22:18:50.520Z,99.90
2023-12-19T22:21:19.489Z,99.90
2023-12-19T22:23:47.070Z,99.90
2023-12-19T22:26:14.053Z,99.90
2023-12-19T22:28:41.529Z,99.90
2023-12-19T22:31:08.546Z,99.90
2023-12-19T22:33:37.267Z,99.90
2023-12-19T22:36:08.667Z,99.90
2023-12-19T22:38:36.754Z,99.90
2023-12-19T22:41:03.626Z,99.90
2023-12-19T22:43:30.861Z,99.90
2023-12-19T22:45:58.866Z,99.90
2023-12-19T22:48:25.793Z,99.90
2023-12-19T22:50:53.519Z,99.90
2023-12-19T22:53:20.434Z,99.90
2023-12-19T22:55:47.684Z,99.90
2023-12-19T22:58:16.217Z,99.90
2023-12-19T23:00:43.736Z,99.90
2023-12-19T23:03:12.426Z,99.90
2023-12-19T23:05:39.530Z,99.90
2023-12-19T23:08:07.172Z,99.90
2023-12-19T23:10:37.964Z,99.90
2023-12-19T23:13:08.019Z,99.90
2023-12-19T23:15:36.333Z,99.90
2023-12-19T23:18:04.007Z,99.90
2023-12-19T23:20:31.741Z,99.90
2023-12-19T23:22:58.885Z,99.90
2023-12-19T23:25:26.003Z,99.90
2023-12-19T23:27:54.760Z,99.90
2023-12-19T23:30:22.525Z,99.90
2023-12-19T23:32:50.503Z,99.90
2023-12-19T23:35:17.480Z,99.90
2023-12-19T23:37:44.812Z,99.90
2023-12-19T23:40:12.915Z,99.90
2023-12-19T23:42:40.156Z,99.90
2023-12-19T23:45:07.786Z,99.90
2023-12-19T23:47:35.229Z,99.90
2023-12-19T23:50:02.977Z,99.90
2023-12-19T23:52:30.142Z,99.90
2023-12-19T23:54:57.221Z,99.90
2023-12-19T23:57:24.481Z,99.90
2023-12-19T23:59:51.632Z,99.90
